KSWF/SWF METAR and TAF weather

Enter ICAO airport designator
Station Type Date Time Source
KSWF METAR 2020/08/12 18:45 UTC NOAA

KSWF 121845Z VRB05KT 10SM SCT040 30/21 A3004


Station Type Date Time Source
KSWF Decoded METAR 2020/08/12 18:45 UTC NOAA

Newburgh / Stewart, NY, United States (KSWF) 41-30N 074-06W
Aug 12, 2020 - 02:45 PM EDT / 2020.08.12 1845 UTC
Wind: Variable at 6 MPH (5 KT):0
Visibility: 10 mile(s):0
Sky conditions: partly cloudy
Temperature: 86 F (30 C)
Dew Point: 69 F (21 C)
Relative Humidity: 58%
Pressure (altimeter): 30.04 in. Hg (1017 hPa)
ob: KSWF 121845Z VRB05KT 10SM SCT040 30/21 A3004
cycle: 19

Station Type Date Time Source
KSWF TAF 2020/08/12 18:30 UTC NOAA

TAF KSWF 121729Z 1218/1324 31006KT P6SM SHRA VCTS BKN040CB
FM130000 VRB03KT P6SM BKN040
FM131200 35005KT P6SM VCSH SCT025 BKN040
AMD NOT SKED

Example: see airport list